createdAt,value
2022-12-19T00:01:33.838Z,1.00
2022-12-19T00:04:21.144Z,1.00
2022-12-19T00:07:07.758Z,1.00
2022-12-19T00:09:54.368Z,1.00
2022-12-19T00:12:42.374Z,1.00
2022-12-19T00:15:29.792Z,1.10
2022-12-19T00:18:16.551Z,1.10
2022-12-19T00:21:06.169Z,1.10
2022-12-19T00:23:53.916Z,1.10
2022-12-19T00:26:40.733Z,1.10
2022-12-19T00:29:28.557Z,1.10
2022-12-19T00:32:16.154Z,1.10
2022-12-19T00:35:03.420Z,1.10
2022-12-19T00:37:49.951Z,1.10
2022-12-19T00:40:36.317Z,1.10
2022-12-19T00:43:23.273Z,1.10
2022-12-19T00:46:13.642Z,1.10
2022-12-19T00:49:01.264Z,1.10
2022-12-19T00:51:48.052Z,1.10
2022-12-19T00:54:34.608Z,1.10
2022-12-19T00:57:21.470Z,1.10
2022-12-19T01:00:10.418Z,1.10
2022-12-19T01:02:58.724Z,1.20
2022-12-19T01:05:45.615Z,1.20
2022-12-19T01:08:33.298Z,1.20
2022-12-19T01:11:39.666Z,1.20
2022-12-19T01:14:25.609Z,1.20
2022-12-19T01:17:12.886Z,1.30
2022-12-19T01:20:00.584Z,1.30
2022-12-19T01:22:47.092Z,1.30
2022-12-19T01:25:34.534Z,1.30
2022-12-19T01:28:24.209Z,1.30
2022-12-19T01:31:11.252Z,1.30
2022-12-19T01:34:00.819Z,1.30
2022-12-19T01:36:49.422Z,1.40
2022-12-19T01:39:35.810Z,1.40
2022-12-19T01:42:24.369Z,1.40
2022-12-19T01:45:34.513Z,1.40
2022-12-19T01:48:29.809Z,1.40
2022-12-19T01:51:22.610Z,1.50
2022-12-19T01:54:15.234Z,1.50
2022-12-19T01:57:05.105Z,1.50
2022-12-19T01:59:58.418Z,1.60
2022-12-19T02:02:53.725Z,1.60
2022-12-19T02:05:42.346Z,1.60
2022-12-19T02:08:29.966Z,1.70
2022-12-19T02:11:20.514Z,1.70
2022-12-19T02:14:07.806Z,1.70
2022-12-19T02:17:05.228Z,1.70
2022-12-19T02:20:58.228Z,1.80
2022-12-19T02:24:33.822Z,1.80
2022-12-19T02:27:52.421Z,1.80
2022-12-19T02:30:55.141Z,1.90
2022-12-19T02:33:47.999Z,1.90
2022-12-19T02:36:42.630Z,1.90
2022-12-19T02:39:42.526Z,2.00
2022-12-19T02:42:33.624Z,2.00
2022-12-19T02:45:28.414Z,2.00
2022-12-19T02:48:19.458Z,2.10
2022-12-19T02:51:06.792Z,2.10
2022-12-19T02:53:53.796Z,2.10
2022-12-19T02:56:51.759Z,2.10
2022-12-19T02:59:59.352Z,2.20
2022-12-19T03:03:01.230Z,2.20
2022-12-19T03:06:03.106Z,2.20
2022-12-19T03:09:01.152Z,2.30
2022-12-19T03:11:53.386Z,2.30
2022-12-19T03:14:41.383Z,2.30
2022-12-19T03:17:29.661Z,2.40
2022-12-19T03:20:27.427Z,2.40
2022-12-19T03:23:16.618Z,2.40
2022-12-19T03:26:07.877Z,2.40
2022-12-19T03:29:00.507Z,2.40
2022-12-19T03:31:48.478Z,2.50
2022-12-19T03:34:42.751Z,2.50
2022-12-19T03:37:35.817Z,2.50
2022-12-19T03:40:28.900Z,2.60
2022-12-19T03:43:17.784Z,2.60
2022-12-19T03:46:13.921Z,2.70
2022-12-19T03:49:00.408Z,2.70
2022-12-19T03:51:59.386Z,2.80
2022-12-19T03:54:55.705Z,2.80
2022-12-19T03:57:54.631Z,2.90
2022-12-19T04:00:47.306Z,2.90
2022-12-19T04:03:34.526Z,2.90
2022-12-19T04:06:21.791Z,2.90
2022-12-19T04:09:09.776Z,3.00
2022-12-19T04:12:04.111Z,3.10
2022-12-19T04:14:52.852Z,3.10
2022-12-19T04:17:46.667Z,3.10
2022-12-19T04:20:37.922Z,3.10
2022-12-19T04:23:31.393Z,3.20
2022-12-19T04:26:20.844Z,3.20
2022-12-19T04:29:08.978Z,3.20
2022-12-19T04:31:57.891Z,3.20
2022-12-19T04:34:44.573Z,3.30
2022-12-19T04:37:32.902Z,3.30
2022-12-19T04:40:19.847Z,3.30
2022-12-19T04:43:07.532Z,3.30
2022-12-19T04:45:57.506Z,3.30
2022-12-19T04:48:45.661Z,3.40
2022-12-19T04:51:32.605Z,3.40
2022-12-19T04:54:19.137Z,3.40
2022-12-19T04:57:05.862Z,3.40
2022-12-19T04:59:52.358Z,3.40
2022-12-19T05:02:39.691Z,3.50
2022-12-19T05:05:27.688Z,3.50
2022-12-19T05:08:14.214Z,3.50
2022-12-19T05:11:01.711Z,3.50
2022-12-19T05:13:49.879Z,3.50
2022-12-19T05:16:36.611Z,3.60
2022-12-19T05:19:23.434Z,3.60
2022-12-19T05:22:11.162Z,3.60
2022-12-19T05:24:57.825Z,3.60
2022-12-19T05:27:44.676Z,3.60
2022-12-19T05:30:31.559Z,3.70
2022-12-19T05:33:18.386Z,3.70
2022-12-19T05:36:06.273Z,3.80
2022-12-19T05:38:55.013Z,3.80
2022-12-19T05:41:41.680Z,3.80
2022-12-19T05:44:28.639Z,3.90
2022-12-19T05:47:15.207Z,3.90
2022-12-19T05:50:02.009Z,4.00
2022-12-19T05:52:48.585Z,4.00
2022-12-19T05:55:36.544Z,4.00
2022-12-19T05:58:23.212Z,4.00
2022-12-19T06:01:12.904Z,4.00
2022-12-19T06:03:59.597Z,4.10
2022-12-19T06:06:46.523Z,4.10
2022-12-19T06:09:32.915Z,4.10
2022-12-19T06:12:20.669Z,4.10
2022-12-19T06:15:08.698Z,4.20
2022-12-19T06:17:55.755Z,4.20
2022-12-19T06:20:42.434Z,4.20
2022-12-19T06:23:32.140Z,4.20
2022-12-19T06:26:21.448Z,4.20
2022-12-19T06:29:09.393Z,4.20
2022-12-19T06:31:55.814Z,4.20
2022-12-19T06:37:50.639Z,4.30
2022-12-19T06:41:00.488Z,4.30
2022-12-19T06:43:50.559Z,4.30
2022-12-19T06:46:41.906Z,4.30
2022-12-19T06:49:28.957Z,4.30
2022-12-19T06:52:15.747Z,4.30
2022-12-19T06:55:02.298Z,4.40
2022-12-19T06:57:49.021Z,4.30
2022-12-19T07:00:38.615Z,4.40
2022-12-19T07:03:33.180Z,4.40
2022-12-19T07:06:20.063Z,4.40
2022-12-19T07:09:07.533Z,4.40
2022-12-19T07:11:54.520Z,4.40
2022-12-19T07:14:41.649Z,4.40
2022-12-19T07:17:30.550Z,4.40
2022-12-19T07:20:20.541Z,4.50
2022-12-19T07:23:09.954Z,4.50
2022-12-19T07:25:56.492Z,4.50
2022-12-19T07:28:44.433Z,4.50
2022-12-19T07:31:30.975Z,4.50
2022-12-19T07:34:17.649Z,4.50
2022-12-19T07:37:06.740Z,4.60
2022-12-19T07:39:53.532Z,4.60
2022-12-19T07:42:40.301Z,4.60
2022-12-19T07:45:26.762Z,4.60
2022-12-19T07:48:13.311Z,4.60
2022-12-19T07:50:59.798Z,4.60
2022-12-19T07:53:48.626Z,4.70
2022-12-19T07:56:35.064Z,4.70
2022-12-19T07:59:27.326Z,4.70
2022-12-19T08:02:16.431Z,4.70
2022-12-19T08:05:03.207Z,4.70
2022-12-19T08:07:57.042Z,4.70
2022-12-19T08:10:45.217Z,4.80
2022-12-19T08:13:37.315Z,4.80
2022-12-19T08:16:28.032Z,4.80
2022-12-19T08:19:14.678Z,4.90
2022-12-19T08:22:01.392Z,4.90
2022-12-19T08:24:48.024Z,4.90
2022-12-19T08:27:35.953Z,4.90
2022-12-19T08:30:22.887Z,5.00
2022-12-19T08:33:09.989Z,5.00
2022-12-19T08:35:56.775Z,5.00
2022-12-19T08:38:43.379Z,5.00
2022-12-19T08:41:30.300Z,5.10
2022-12-19T08:44:19.419Z,5.10
2022-12-19T08:47:06.692Z,5.10
2022-12-19T08:49:53.269Z,5.10
2022-12-19T08:52:40.090Z,5.20
2022-12-19T08:55:28.358Z,5.20
2022-12-19T08:58:16.582Z,5.20
2022-12-19T09:01:08.915Z,5.20
2022-12-19T09:04:50.238Z,5.30
2022-12-19T09:07:06.846Z,5.30
2022-12-19T09:09:53.999Z,5.30
2022-12-19T09:12:40.572Z,5.30
2022-12-19T09:15:27.222Z,5.30
2022-12-19T09:18:15.473Z,5.40
2022-12-19T09:21:03.179Z,5.40
2022-12-19T09:24:03.450Z,5.40
2022-12-19T09:26:53.854Z,5.40
2022-12-19T09:29:40.638Z,5.40
2022-12-19T09:32:28.340Z,5.50
2022-12-19T09:35:16.473Z,5.50
2022-12-19T09:38:03.487Z,5.50
2022-12-19T09:41:10.840Z,5.50
2022-12-19T09:44:14.414Z,5.50
2022-12-19T09:47:04.024Z,5.60
2022-12-19T09:49:53.944Z,5.60
2022-12-19T09:52:51.472Z,5.60
2022-12-19T09:55:42.552Z,5.70
2022-12-19T09:58:38.355Z,5.70
2022-12-19T10:01:33.818Z,5.70
2022-12-19T10:04:20.842Z,5.70
2022-12-19T10:07:29.971Z,5.80
2022-12-19T10:12:34.170Z,5.80
2022-12-19T10:14:09.764Z,5.80
2022-12-19T10:17:24.296Z,5.80
2022-12-19T10:20:24.326Z,5.90
2022-12-19T10:23:38.852Z,5.90
2022-12-19T10:26:37.355Z,5.90
2022-12-19T10:30:03.288Z,6.00
2022-12-19T10:33:07.428Z,6.00
2022-12-19T10:36:10.083Z,6.10
2022-12-19T10:39:07.388Z,6.10
2022-12-19T10:42:03.950Z,6.20
2022-12-19T10:44:54.257Z,6.20
2022-12-19T10:47:42.931Z,6.20
2022-12-19T10:50:31.525Z,6.30
2022-12-19T10:53:27.707Z,6.30
2022-12-19T10:56:25.501Z,6.30
2022-12-19T10:59:20.108Z,6.30
2022-12-19T11:02:28.894Z,6.40
2022-12-19T11:05:26.989Z,6.40
2022-12-19T11:08:19.606Z,6.40
2022-12-19T11:13:08.507Z,6.40
2022-12-19T11:19:45.319Z,6.40
2022-12-19T11:23:45.343Z,6.40
2022-12-19T11:29:32.670Z,6.50
2022-12-19T11:30:38.459Z,6.50
2022-12-19T11:30:39.083Z,6.50
2022-12-19T11:32:14.156Z,6.50
2022-12-19T11:34:18.017Z,6.50
2022-12-19T11:37:23.024Z,6.50
2022-12-19T11:40:21.566Z,6.60
2022-12-19T11:46:39.376Z,6.60
2022-12-19T11:49:33.876Z,6.60
2022-12-19T11:53:03.521Z,6.60
2022-12-19T11:55:50.027Z,6.70
2022-12-19T11:58:36.838Z,6.70
2022-12-19T12:01:59.272Z,6.70
2022-12-19T12:05:41.168Z,6.70
2022-12-19T12:09:50.123Z,6.70
2022-12-19T12:19:08.560Z,6.70
2022-12-19T12:26:06.431Z,6.70
2022-12-19T12:31:07.646Z,6.80
2022-12-19T12:31:19.067Z,6.80
2022-12-19T12:31:55.325Z,6.80
2022-12-19T12:32:05.069Z,6.80
2022-12-19T12:35:51.083Z,6.80
2022-12-19T12:39:18.324Z,6.90
2022-12-19T12:42:37.601Z,6.90
2022-12-19T12:45:31.766Z,6.90
2022-12-19T12:48:27.479Z,6.90
2022-12-19T12:51:19.113Z,6.90
2022-12-19T12:54:12.368Z,6.90
2022-12-19T12:56:59.198Z,6.90
2022-12-19T12:59:47.567Z,6.90
2022-12-19T13:02:35.171Z,6.90
2022-12-19T13:05:54.010Z,7.00
2022-12-19T13:08:48.329Z,7.00
2022-12-19T13:11:59.240Z,7.00
2022-12-19T13:14:50.205Z,7.00
2022-12-19T13:18:27.803Z,7.00
2022-12-19T13:21:19.485Z,7.10
2022-12-19T13:24:23.198Z,7.10
2022-12-19T13:27:39.678Z,7.10
2022-12-19T13:30:26.580Z,7.10
2022-12-19T13:33:13.391Z,7.10
2022-12-19T13:39:23.754Z,7.10
2022-12-19T13:40:02.345Z,7.10
2022-12-19T13:43:10.643Z,7.10
2022-12-19T13:46:02.088Z,7.10
2022-12-19T13:48:52.939Z,7.10
2022-12-19T13:51:47.365Z,7.20
2022-12-19T13:54:50.042Z,7.20
2022-12-19T13:57:42.971Z,7.20
2022-12-19T14:00:37.214Z,7.20
2022-12-19T14:03:35.573Z,7.20
2022-12-19T14:06:26.488Z,7.20
2022-12-19T14:11:26.659Z,7.20
2022-12-19T14:13:51.071Z,7.20
2022-12-19T14:16:15.758Z,7.20
2022-12-19T14:19:02.274Z,7.20
2022-12-19T14:22:09.946Z,7.20
2022-12-19T14:25:33.308Z,7.20
2022-12-19T14:28:18.710Z,7.30
2022-12-19T14:31:18.313Z,7.30
2022-12-19T14:34:43.291Z,7.30
2022-12-19T14:38:38.252Z,7.30
2022-12-19T14:41:07.943Z,7.30
2022-12-19T14:52:51.617Z,7.40
2022-12-19T14:54:06.781Z,7.40
2022-12-19T14:54:25.922Z,7.40
2022-12-19T14:54:33.977Z,7.40
2022-12-19T14:57:00.078Z,7.40
2022-12-19T14:59:49.283Z,7.40
2022-12-19T15:02:37.376Z,7.40
2022-12-19T15:05:24.726Z,7.40
2022-12-19T15:08:15.146Z,7.50
2022-12-19T15:11:50.659Z,7.50
2022-12-19T15:14:53.853Z,7.50
2022-12-19T15:17:48.501Z,7.50
2022-12-19T15:20:35.273Z,7.50
2022-12-19T15:23:23.021Z,7.50
2022-12-19T15:26:16.732Z,7.50
2022-12-19T15:29:14.007Z,7.50
2022-12-19T15:32:03.347Z,7.50
2022-12-19T15:34:57.215Z,7.50
2022-12-19T15:37:45.465Z,7.50
2022-12-19T15:40:32.583Z,7.50
2022-12-19T15:44:01.409Z,7.50
2022-12-19T15:46:32.544Z,7.50
2022-12-19T15:49:21.932Z,7.50
2022-12-19T15:52:18.317Z,7.50
2022-12-19T15:55:08.848Z,7.50
2022-12-19T15:58:00.274Z,7.60
2022-12-19T16:00:53.187Z,7.60
2022-12-19T16:03:40.322Z,7.60
2022-12-19T16:06:27.715Z,7.60
2022-12-19T16:09:22.105Z,7.60
2022-12-19T16:12:15.413Z,7.60
2022-12-19T16:15:03.600Z,7.60
2022-12-19T16:17:50.508Z,7.60
2022-12-19T16:20:41.598Z,7.60
2022-12-19T16:23:30.105Z,7.60
2022-12-19T16:26:32.583Z,7.70
2022-12-19T16:29:21.678Z,7.70
2022-12-19T16:32:11.336Z,7.70
2022-12-19T16:34:58.700Z,7.70
2022-12-19T16:37:45.556Z,7.70
2022-12-19T16:40:32.339Z,7.60
2022-12-19T16:43:31.103Z,7.70
2022-12-19T16:46:22.162Z,7.70
2022-12-19T16:49:15.424Z,7.70
2022-12-19T16:52:02.329Z,7.70
2022-12-19T16:54:48.756Z,7.70
2022-12-19T16:57:40.977Z,7.70
2022-12-19T17:00:32.085Z,7.70
2022-12-19T17:03:30.731Z,7.70
2022-12-19T17:06:21.027Z,7.70
2022-12-19T17:09:08.047Z,7.70
2022-12-19T17:12:00.033Z,7.70
2022-12-19T17:14:47.200Z,7.70
2022-12-19T17:17:35.731Z,7.70
2022-12-19T17:20:28.426Z,7.70
2022-12-19T17:23:17.990Z,7.70
2022-12-19T17:26:04.390Z,7.70
2022-12-19T17:28:51.191Z,7.80
2022-12-19T17:31:39.823Z,7.80
2022-12-19T17:34:32.234Z,7.80
2022-12-19T17:37:19.164Z,7.80
2022-12-19T17:40:17.832Z,7.70
2022-12-19T17:43:04.675Z,7.70
2022-12-19T17:45:52.064Z,7.70
2022-12-19T17:48:38.636Z,7.70
2022-12-19T17:51:26.457Z,7.70
2022-12-19T17:54:13.569Z,7.60
2022-12-19T17:57:00.473Z,7.60
2022-12-19T17:59:47.265Z,7.60
2022-12-19T18:02:37.314Z,7.70
2022-12-19T18:05:28.706Z,7.70
2022-12-19T18:08:27.782Z,7.70
2022-12-19T18:11:20.598Z,7.70
2022-12-19T18:14:07.484Z,7.70
2022-12-19T18:16:54.323Z,7.70
2022-12-19T18:19:41.623Z,7.70
2022-12-19T18:22:28.553Z,7.70
2022-12-19T18:25:20.197Z,7.70
2022-12-19T18:28:06.973Z,7.70
2022-12-19T18:30:59.858Z,7.70
2022-12-19T18:33:48.905Z,7.70
2022-12-19T18:36:41.331Z,7.70
2022-12-19T18:39:31.916Z,7.80
2022-12-19T18:42:22.037Z,7.80
2022-12-19T18:45:15.590Z,7.70
2022-12-19T18:48:07.192Z,7.80
2022-12-19T18:50:55.191Z,7.80
2022-12-19T18:53:43.759Z,7.80
2022-12-19T18:56:30.751Z,7.80
2022-12-19T18:59:18.447Z,7.80
2022-12-19T19:02:06.221Z,7.80
2022-12-19T19:04:55.723Z,7.70
2022-12-19T19:07:42.680Z,7.80
2022-12-19T19:10:32.351Z,7.80
2022-12-19T19:13:21.074Z,7.70
2022-12-19T19:16:18.335Z,7.70
2022-12-19T19:19:09.970Z,7.70
2022-12-19T19:21:56.510Z,7.70
2022-12-19T19:24:43.003Z,7.70
2022-12-19T19:27:29.601Z,7.70
2022-12-19T19:30:17.007Z,7.70
2022-12-19T19:33:12.787Z,7.70
2022-12-19T19:36:11.040Z,7.70
2022-12-19T19:38:59.904Z,7.70
2022-12-19T19:41:46.748Z,7.70
2022-12-19T19:44:33.251Z,7.60
2022-12-19T19:47:26.908Z,7.70
2022-12-19T19:50:15.420Z,7.70
2022-12-19T19:53:02.563Z,7.60
2022-12-19T19:55:56.762Z,7.70
2022-12-19T19:58:43.459Z,7.70
2022-12-19T20:01:30.420Z,7.70
2022-12-19T20:04:17.274Z,7.70
2022-12-19T20:07:05.578Z,7.80
2022-12-19T20:09:52.648Z,7.80
2022-12-19T20:12:39.776Z,7.80
2022-12-19T20:15:26.764Z,7.80
2022-12-19T20:18:13.155Z,7.80
2022-12-19T20:20:59.719Z,7.80
2022-12-19T20:23:47.935Z,7.80
2022-12-19T20:26:34.549Z,7.80
2022-12-19T20:29:21.494Z,7.80
2022-12-19T20:32:08.353Z,7.80
2022-12-19T20:34:54.999Z,7.80
2022-12-19T20:37:41.499Z,7.80
2022-12-19T20:40:30.005Z,7.80
2022-12-19T20:43:16.635Z,7.80
2022-12-19T20:46:05.276Z,7.80
2022-12-19T20:48:52.890Z,7.80
2022-12-19T20:51:39.824Z,7.80
2022-12-19T20:54:26.805Z,7.80
2022-12-19T20:57:14.552Z,7.80
2022-12-19T21:00:01.310Z,7.80
2022-12-19T21:03:25.908Z,7.80
2022-12-19T21:06:02.734Z,7.70
2022-12-19T21:08:58.735Z,7.80
2022-12-19T21:11:45.644Z,7.70
2022-12-19T21:14:37.012Z,7.80
2022-12-19T21:17:24.070Z,7.80
2022-12-19T21:20:12.627Z,7.80
2022-12-19T21:22:59.513Z,7.80
2022-12-19T21:25:46.373Z,7.90
2022-12-19T21:28:33.735Z,7.90
2022-12-19T21:31:26.026Z,7.90
2022-12-19T21:34:15.376Z,8.00
2022-12-19T21:37:02.207Z,8.00
2022-12-19T21:39:49.265Z,8.00
2022-12-19T21:42:35.929Z,8.00
2022-12-19T21:45:22.644Z,8.10
2022-12-19T21:48:11.384Z,8.10
2022-12-19T21:50:58.066Z,8.10
2022-12-19T21:53:45.183Z,8.10
2022-12-19T21:56:37.124Z,8.20
2022-12-19T21:59:24.210Z,8.20
2022-12-19T22:02:11.500Z,8.20
2022-12-19T22:04:59.672Z,8.30
2022-12-19T22:07:46.319Z,8.30
2022-12-19T22:10:33.253Z,8.30
2022-12-19T22:13:20.608Z,8.30
2022-12-19T22:16:08.413Z,8.30
2022-12-19T22:18:56.424Z,8.30
2022-12-19T22:21:46.347Z,8.30
2022-12-19T22:24:33.083Z,8.40
2022-12-19T22:27:19.635Z,8.40
2022-12-19T22:30:11.120Z,8.40
2022-12-19T22:32:58.408Z,8.40
2022-12-19T22:35:45.388Z,8.40
2022-12-19T22:38:33.838Z,8.40
2022-12-19T22:41:21.364Z,8.50
2022-12-19T22:44:09.365Z,8.50
2022-12-19T22:46:56.017Z,8.50
2022-12-19T22:49:42.846Z,8.50
2022-12-19T22:52:29.667Z,8.50
2022-12-19T22:55:18.146Z,8.60
2022-12-19T22:58:04.709Z,8.60
2022-12-19T23:00:51.559Z,8.60
2022-12-19T23:03:38.350Z,8.60
2022-12-19T23:06:27.564Z,8.60
2022-12-19T23:09:17.929Z,8.60
2022-12-19T23:12:06.414Z,8.60
2022-12-19T23:15:00.256Z,8.70
2022-12-19T23:17:47.084Z,8.60
2022-12-19T23:20:34.046Z,8.60
2022-12-19T23:23:20.891Z,8.70
2022-12-19T23:26:14.977Z,8.70
2022-12-19T23:29:06.428Z,8.70
2022-12-19T23:31:53.067Z,8.70
2022-12-19T23:34:42.487Z,8.80
2022-12-19T23:37:29.399Z,8.80
2022-12-19T23:40:16.810Z,8.80
2022-12-19T23:43:03.623Z,8.80
2022-12-19T23:45:52.099Z,8.80
2022-12-19T23:48:42.412Z,8.80
2022-12-19T23:51:30.048Z,8.90
2022-12-19T23:54:16.701Z,8.90
2022-12-19T23:57:03.482Z,8.90
2022-12-19T23:59:50.180Z,8.90
